sensor_id;sensor_type;location;lat;lon;timestamp;temperature;humidity
16066;DHT22;8137;48.952;8.970;2023-09-19T00:00:34;15.90;99.90
16066;DHT22;8137;48.952;8.970;2023-09-19T00:03:01;15.90;99.90
16066;DHT22;8137;48.952;8.970;2023-09-19T00:05:30;15.80;99.90
16066;DHT22;8137;48.952;8.970;2023-09-19T00:08:00;15.80;99.90
16066;DHT22;8137;48.952;8.970;2023-09-19T00:10:27;15.80;99.90
16066;DHT22;8137;48.952;8.970;2023-09-19T00:12:57;15.80;99.90
16066;DHT22;8137;48.952;8.970;2023-09-19T00:15:25;15.80;99.90
16066;DHT22;8137;48.952;8.970;2023-09-19T00:17:54;15.80;99.90
16066;DHT22;8137;48.952;8.970;2023-09-19T00:20:19;15.80;99.90
16066;DHT22;8137;48.952;8.970;2023-09-19T00:22:48;15.80;99.90
16066;DHT22;8137;48.952;8.970;2023-09-19T00:25:14;15.80;99.90
16066;DHT22;8137;48.952;8.970;2023-09-19T00:27:41;15.80;99.90
16066;DHT22;8137;48.952;8.970;2023-09-19T00:30:12;15.80;99.90
16066;DHT22;8137;48.952;8.970;2023-09-19T00:32:50;15.80;99.90
16066;DHT22;8137;48.952;8.970;2023-09-19T00:35:23;15.80;99.90
16066;DHT22;8137;48.952;8.970;2023-09-19T00:37:53;15.80;99.90
16066;DHT22;8137;48.952;8.970;2023-09-19T00:40:19;15.80;99.90
16066;DHT22;8137;48.952;8.970;2023-09-19T00:42:46;15.90;99.90
16066;DHT22;8137;48.952;8.970;2023-09-19T00:45:13;15.90;99.90
16066;DHT22;8137;48.952;8.970;2023-09-19T00:47:41;15.90;99.90
16066;DHT22;8137;48.952;8.970;2023-09-19T00:50:08;16.00;99.90
16066;DHT22;8137;48.952;8.970;2023-09-19T00:52:35;16.00;99.90
16066;DHT22;8137;48.952;8.970;2023-09-19T00:55:05;16.00;99.90
16066;DHT22;8137;48.952;8.970;2023-09-19T00:57:33;16.10;99.90
16066;DHT22;8137;48.952;8.970;2023-09-19T00:59:59;16.10;99.90
16066;DHT22;8137;48.952;8.970;2023-09-19T01:02:26;16.10;99.90
16066;DHT22;8137;48.952;8.970;2023-09-19T01:04:55;16.20;99.90
16066;DHT22;8137;48.952;8.970;2023-09-19T01:07:21;16.20;99.90
16066;DHT22;8137;48.952;8.970;2023-09-19T01:09:48;16.10;99.90
16066;DHT22;8137;48.952;8.970;2023-09-19T01:12:17;16.10;99.90
16066;DHT22;8137;48.952;8.970;2023-09-19T01:14:54;16.10;99.90
16066;DHT22;8137;48.952;8.970;2023-09-19T01:17:32;16.10;99.90
16066;DHT22;8137;48.952;8.970;2023-09-19T01:20:17;16.10;99.90
16066;DHT22;8137;48.952;8.970;2023-09-19T01:23:14;16.00;99.90
16066;DHT22;8137;48.952;8.970;2023-09-19T01:26:00;16.10;99.90
16066;DHT22;8137;48.952;8.970;2023-09-19T01:28:45;16.10;99.90
16066;DHT22;8137;48.952;8.970;2023-09-19T01:31:20;16.10;99.90
16066;DHT22;8137;48.952;8.970;2023-09-19T01:34:00;16.10;99.90
16066;DHT22;8137;48.952;8.970;2023-09-19T01:36:36;16.00;99.90
16066;DHT22;8137;48.952;8.970;2023-09-19T01:39:06;16.00;99.90
16066;DHT22;8137;48.952;8.970;2023-09-19T01:41:45;16.00;99.90
16066;DHT22;8137;48.952;8.970;2023-09-19T01:44:24;16.10;99.90
16066;DHT22;8137;48.952;8.970;2023-09-19T01:46:51;16.10;99.90
16066;DHT22;8137;48.952;8.970;2023-09-19T01:49:37;16.20;99.90
16066;DHT22;8137;48.952;8.970;2023-09-19T01:52:14;16.30;99.90
16066;DHT22;8137;48.952;8.970;2023-09-19T01:54:52;16.40;99.90
16066;DHT22;8137;48.952;8.970;2023-09-19T01:57:27;16.40;99.90
16066;DHT22;8137;48.952;8.970;2023-09-19T02:00:01;16.40;99.90
16066;DHT22;8137;48.952;8.970;2023-09-19T02:02:35;16.40;99.90
16066;DHT22;8137;48.952;8.970;2023-09-19T02:05:02;16.50;99.90
16066;DHT22;8137;48.952;8.970;2023-09-19T02:07:29;16.50;99.90
16066;DHT22;8137;48.952;8.970;2023-09-19T02:10:00;16.50;99.90
16066;DHT22;8137;48.952;8.970;2023-09-19T02:12:26;16.50;99.90
16066;DHT22;8137;48.952;8.970;2023-09-19T02:14:52;16.50;99.90
16066;DHT22;8137;48.952;8.970;2023-09-19T02:17:17;16.50;99.90
16066;DHT22;8137;48.952;8.970;2023-09-19T02:19:43;16.50;99.90
16066;DHT22;8137;48.952;8.970;2023-09-19T02:22:08;16.50;99.90
16066;DHT22;8137;48.952;8.970;2023-09-19T02:24:36;16.50;99.90
16066;DHT22;8137;48.952;8.970;2023-09-19T02:27:03;16.40;99.90
16066;DHT22;8137;48.952;8.970;2023-09-19T02:29:30;16.40;99.90
16066;DHT22;8137;48.952;8.970;2023-09-19T02:31:55;16.30;99.90
16066;DHT22;8137;48.952;8.970;2023-09-19T02:34:22;16.30;99.90
16066;DHT22;8137;48.952;8.970;2023-09-19T02:36:47;16.30;99.90
16066;DHT22;8137;48.952;8.970;2023-09-19T02:39:13;16.30;99.90
16066;DHT22;8137;48.952;8.970;2023-09-19T02:41:39;16.30;99.90
16066;DHT22;8137;48.952;8.970;2023-09-19T02:44:04;16.30;99.90
16066;DHT22;8137;48.952;8.970;2023-09-19T02:46:34;16.30;99.90
16066;DHT22;8137;48.952;8.970;2023-09-19T02:49:02;16.30;99.90
16066;DHT22;8137;48.952;8.970;2023-09-19T02:51:28;16.40;99.90
16066;DHT22;8137;48.952;8.970;2023-09-19T02:53:54;16.50;99.90
16066;DHT22;8137;48.952;8.970;2023-09-19T02:56:20;16.50;99.90
16066;DHT22;8137;48.952;8.970;2023-09-19T02:58:45;16.60;99.90
16066;DHT22;8137;48.952;8.970;2023-09-19T03:01:11;16.50;99.90
16066;DHT22;8137;48.952;8.970;2023-09-19T03:03:38;16.50;99.90
16066;DHT22;8137;48.952;8.970;2023-09-19T03:06:05;16.50;99.90
16066;DHT22;8137;48.952;8.970;2023-09-19T03:08:31;16.50;99.90
16066;DHT22;8137;48.952;8.970;2023-09-19T03:10:58;16.50;99.90
16066;DHT22;8137;48.952;8.970;2023-09-19T03:13:26;16.50;99.90
16066;DHT22;8137;48.952;8.970;2023-09-19T03:15:54;16.60;99.90
16066;DHT22;8137;48.952;8.970;2023-09-19T03:18:21;16.70;99.90
16066;DHT22;8137;48.952;8.970;2023-09-19T03:20:55;16.70;99.90
16066;DHT22;8137;48.952;8.970;2023-09-19T03:23:22;16.80;99.90
16066;DHT22;8137;48.952;8.970;2023-09-19T03:25:47;16.80;99.90
16066;DHT22;8137;48.952;8.970;2023-09-19T03:28:14;16.80;99.90
16066;DHT22;8137;48.952;8.970;2023-09-19T03:30:42;16.90;99.90
16066;DHT22;8137;48.952;8.970;2023-09-19T03:33:07;16.90;99.90
16066;DHT22;8137;48.952;8.970;2023-09-19T03:35:33;17.00;99.90
16066;DHT22;8137;48.952;8.970;2023-09-19T03:38:00;17.00;99.90
16066;DHT22;8137;48.952;8.970;2023-09-19T03:40:25;17.10;99.90
16066;DHT22;8137;48.952;8.970;2023-09-19T03:42:51;17.10;99.90
16066;DHT22;8137;48.952;8.970;2023-09-19T03:45:17;17.10;99.90
16066;DHT22;8137;48.952;8.970;2023-09-19T03:47:43;17.10;99.90
16066;DHT22;8137;48.952;8.970;2023-09-19T03:50:09;17.10;99.90
16066;DHT22;8137;48.952;8.970;2023-09-19T03:52:40;17.20;99.90
16066;DHT22;8137;48.952;8.970;2023-09-19T03:55:06;17.00;99.90
16066;DHT22;8137;48.952;8.970;2023-09-19T03:57:32;16.90;99.90
16066;DHT22;8137;48.952;8.970;2023-09-19T03:59:58;16.60;99.90
16066;DHT22;8137;48.952;8.970;2023-09-19T04:02:23;16.50;99.90
16066;DHT22;8137;48.952;8.970;2023-09-19T04:04:51;16.40;99.90
16066;DHT22;8137;48.952;8.970;2023-09-19T04:07:17;16.40;99.90
16066;DHT22;8137;48.952;8.970;2023-09-19T04:09:44;16.30;99.90
16066;DHT22;8137;48.952;8.970;2023-09-19T04:12:11;16.30;99.90
16066;DHT22;8137;48.952;8.970;2023-09-19T04:14:37;16.30;99.90
16066;DHT22;8137;48.952;8.970;2023-09-19T04:17:04;16.20;99.90
16066;DHT22;8137;48.952;8.970;2023-09-19T04:19:30;16.20;99.90
16066;DHT22;8137;48.952;8.970;2023-09-19T04:21:56;16.20;99.90
16066;DHT22;8137;48.952;8.970;2023-09-19T04:24:22;16.20;99.90
16066;DHT22;8137;48.952;8.970;2023-09-19T04:26:47;16.20;99.90
16066;DHT22;8137;48.952;8.970;2023-09-19T04:29:13;16.10;99.90
16066;DHT22;8137;48.952;8.970;2023-09-19T04:31:39;16.10;99.90
16066;DHT22;8137;48.952;8.970;2023-09-19T04:34:06;16.10;99.90
16066;DHT22;8137;48.952;8.970;2023-09-19T04:36:33;16.10;99.90
16066;DHT22;8137;48.952;8.970;2023-09-19T04:38:58;16.10;99.90
16066;DHT22;8137;48.952;8.970;2023-09-19T04:41:24;16.10;99.90
16066;DHT22;8137;48.952;8.970;2023-09-19T04:43:50;16.20;99.90
16066;DHT22;8137;48.952;8.970;2023-09-19T04:46:16;16.20;99.90
16066;DHT22;8137;48.952;8.970;2023-09-19T04:48:43;16.20;99.90
16066;DHT22;8137;48.952;8.970;2023-09-19T04:51:08;16.10;99.90
16066;DHT22;8137;48.952;8.970;2023-09-19T04:53:35;16.10;99.90
16066;DHT22;8137;48.952;8.970;2023-09-19T04:56:01;16.10;99.90
16066;DHT22;8137;48.952;8.970;2023-09-19T04:58:29;16.10;99.90
16066;DHT22;8137;48.952;8.970;2023-09-19T05:00:54;16.20;99.90
16066;DHT22;8137;48.952;8.970;2023-09-19T05:03:20;16.30;99.90
16066;DHT22;8137;48.952;8.970;2023-09-19T05:05:47;16.30;99.90
16066;DHT22;8137;48.952;8.970;2023-09-19T05:08:13;16.40;99.90
16066;DHT22;8137;48.952;8.970;2023-09-19T05:10:39;16.40;99.90
16066;DHT22;8137;48.952;8.970;2023-09-19T05:13:05;16.50;99.90
16066;DHT22;8137;48.952;8.970;2023-09-19T05:15:32;16.50;99.90
16066;DHT22;8137;48.952;8.970;2023-09-19T05:17:58;16.60;99.90
16066;DHT22;8137;48.952;8.970;2023-09-19T05:20:25;16.60;99.90
16066;DHT22;8137;48.952;8.970;2023-09-19T05:23:07;16.60;99.90
16066;DHT22;8137;48.952;8.970;2023-09-19T05:25:35;16.60;99.90
16066;DHT22;8137;48.952;8.970;2023-09-19T05:28:03;16.50;99.90
16066;DHT22;8137;48.952;8.970;2023-09-19T05:30:31;16.40;99.90
16066;DHT22;8137;48.952;8.970;2023-09-19T05:32:57;16.40;99.90
16066;DHT22;8137;48.952;8.970;2023-09-19T05:35:24;16.40;99.90
16066;DHT22;8137;48.952;8.970;2023-09-19T05:37:53;16.30;99.90
16066;DHT22;8137;48.952;8.970;2023-09-19T05:40:20;16.30;99.90
16066;DHT22;8137;48.952;8.970;2023-09-19T05:42:46;16.30;99.90
16066;DHT22;8137;48.952;8.970;2023-09-19T05:45:13;16.30;99.90
16066;DHT22;8137;48.952;8.970;2023-09-19T05:47:42;16.30;99.90
16066;DHT22;8137;48.952;8.970;2023-09-19T05:50:12;16.30;99.90
16066;DHT22;8137;48.952;8.970;2023-09-19T05:52:38;16.30;99.90
16066;DHT22;8137;48.952;8.970;2023-09-19T05:55:07;16.30;99.90
16066;DHT22;8137;48.952;8.970;2023-09-19T05:57:35;16.30;99.90
16066;DHT22;8137;48.952;8.970;2023-09-19T06:00:02;16.30;99.90
16066;DHT22;8137;48.952;8.970;2023-09-19T06:02:29;16.30;99.90
16066;DHT22;8137;48.952;8.970;2023-09-19T06:04:56;16.30;99.90
16066;DHT22;8137;48.952;8.970;2023-09-19T06:07:24;16.30;99.90
16066;DHT22;8137;48.952;8.970;2023-09-19T06:09:52;16.30;99.90
16066;DHT22;8137;48.952;8.970;2023-09-19T06:12:21;16.30;99.90
16066;DHT22;8137;48.952;8.970;2023-09-19T06:14:47;16.40;99.90
16066;DHT22;8137;48.952;8.970;2023-09-19T06:17:13;16.40;99.90
16066;DHT22;8137;48.952;8.970;2023-09-19T06:19:39;16.50;99.90
16066;DHT22;8137;48.952;8.970;2023-09-19T06:22:07;16.60;99.90
16066;DHT22;8137;48.952;8.970;2023-09-19T06:24:33;16.60;99.90
16066;DHT22;8137;48.952;8.970;2023-09-19T06:26:58;16.70;99.90
16066;DHT22;8137;48.952;8.970;2023-09-19T06:29:26;16.80;99.90
16066;DHT22;8137;48.952;8.970;2023-09-19T06:31:52;16.80;99.90
16066;DHT22;8137;48.952;8.970;2023-09-19T06:34:17;16.90;99.90
16066;DHT22;8137;48.952;8.970;2023-09-19T06:36:43;16.90;99.90
16066;DHT22;8137;48.952;8.970;2023-09-19T06:39:10;17.00;99.90
16066;DHT22;8137;48.952;8.970;2023-09-19T06:41:37;17.10;99.90
16066;DHT22;8137;48.952;8.970;2023-09-19T06:44:04;17.10;99.90
16066;DHT22;8137;48.952;8.970;2023-09-19T06:46:30;17.30;99.90
16066;DHT22;8137;48.952;8.970;2023-09-19T06:49:00;17.40;99.90
16066;DHT22;8137;48.952;8.970;2023-09-19T06:51:26;17.40;99.90
16066;DHT22;8137;48.952;8.970;2023-09-19T06:53:51;17.40;99.90
16066;DHT22;8137;48.952;8.970;2023-09-19T06:56:19;17.30;99.90
16066;DHT22;8137;48.952;8.970;2023-09-19T06:58:48;17.40;99.90
16066;DHT22;8137;48.952;8.970;2023-09-19T07:01:14;17.40;99.90
16066;DHT22;8137;48.952;8.970;2023-09-19T07:03:40;17.30;99.90
16066;DHT22;8137;48.952;8.970;2023-09-19T07:06:06;17.30;99.90
16066;DHT22;8137;48.952;8.970;2023-09-19T07:08:32;17.20;99.90
16066;DHT22;8137;48.952;8.970;2023-09-19T07:10:58;17.20;99.90
16066;DHT22;8137;48.952;8.970;2023-09-19T07:13:23;17.20;99.90
16066;DHT22;8137;48.952;8.970;2023-09-19T07:15:50;17.20;99.90
16066;DHT22;8137;48.952;8.970;2023-09-19T07:18:17;17.20;99.90
16066;DHT22;8137;48.952;8.970;2023-09-19T07:20:44;17.30;99.90
16066;DHT22;8137;48.952;8.970;2023-09-19T07:23:18;17.30;99.90
16066;DHT22;8137;48.952;8.970;2023-09-19T07:25:44;17.30;99.90
16066;DHT22;8137;48.952;8.970;2023-09-19T07:28:10;17.40;99.90
16066;DHT22;8137;48.952;8.970;2023-09-19T07:30:38;17.40;99.90
16066;DHT22;8137;48.952;8.970;2023-09-19T07:33:07;17.50;99.90
16066;DHT22;8137;48.952;8.970;2023-09-19T07:35:33;17.40;99.90
16066;DHT22;8137;48.952;8.970;2023-09-19T07:37:59;17.40;99.90
16066;DHT22;8137;48.952;8.970;2023-09-19T07:40:27;17.50;99.90
16066;DHT22;8137;48.952;8.970;2023-09-19T07:42:57;17.50;99.90
16066;DHT22;8137;48.952;8.970;2023-09-19T07:45:27;17.60;99.90
16066;DHT22;8137;48.952;8.970;2023-09-19T07:47:53;17.60;99.90
16066;DHT22;8137;48.952;8.970;2023-09-19T07:50:20;17.70;99.90
16066;DHT22;8137;48.952;8.970;2023-09-19T07:52:47;17.70;99.90
16066;DHT22;8137;48.952;8.970;2023-09-19T07:55:13;17.80;99.90
16066;DHT22;8137;48.952;8.970;2023-09-19T07:57:43;18.00;99.90
16066;DHT22;8137;48.952;8.970;2023-09-19T08:00:10;18.30;99.90
16066;DHT22;8137;48.952;8.970;2023-09-19T08:02:39;18.50;99.90
16066;DHT22;8137;48.952;8.970;2023-09-19T08:05:14;18.50;99.90
16066;DHT22;8137;48.952;8.970;2023-09-19T08:07:44;18.90;99.90
16066;DHT22;8137;48.952;8.970;2023-09-19T08:10:16;18.80;99.90
16066;DHT22;8137;48.952;8.970;2023-09-19T08:12:45;19.00;99.90
16066;DHT22;8137;48.952;8.970;2023-09-19T08:15:18;19.10;99.90
16066;DHT22;8137;48.952;8.970;2023-09-19T08:17:45;19.20;99.90
16066;DHT22;8137;48.952;8.970;2023-09-19T08:20:12;19.40;99.90
16066;DHT22;8137;48.952;8.970;2023-09-19T08:22:51;19.40;99.90
16066;DHT22;8137;48.952;8.970;2023-09-19T08:25:21;19.30;99.90
16066;DHT22;8137;48.952;8.970;2023-09-19T08:27:51;19.30;99.90
16066;DHT22;8137;48.952;8.970;2023-09-19T08:30:20;19.40;99.90
16066;DHT22;8137;48.952;8.970;2023-09-19T08:32:49;19.30;99.90
16066;DHT22;8137;48.952;8.970;2023-09-19T08:35:15;19.50;99.90
16066;DHT22;8137;48.952;8.970;2023-09-19T08:37:42;19.70;99.90
16066;DHT22;8137;48.952;8.970;2023-09-19T08:40:08;19.70;99.90
16066;DHT22;8137;48.952;8.970;2023-09-19T08:42:51;19.60;99.90
16066;DHT22;8137;48.952;8.970;2023-09-19T08:45:22;19.50;99.90
16066;DHT22;8137;48.952;8.970;2023-09-19T08:50:49;19.60;99.90
16066;DHT22;8137;48.952;8.970;2023-09-19T08:53:21;19.40;99.90
16066;DHT22;8137;48.952;8.970;2023-09-19T08:55:53;19.40;99.90
16066;DHT22;8137;48.952;8.970;2023-09-19T08:58:21;19.30;99.90
16066;DHT22;8137;48.952;8.970;2023-09-19T09:00:53;19.20;99.90
16066;DHT22;8137;48.952;8.970;2023-09-19T09:03:21;19.10;99.90
16066;DHT22;8137;48.952;8.970;2023-09-19T09:05:48;19.20;99.90
16066;DHT22;8137;48.952;8.970;2023-09-19T09:08:16;19.30;99.90
16066;DHT22;8137;48.952;8.970;2023-09-19T09:10:44;19.30;99.90
16066;DHT22;8137;48.952;8.970;2023-09-19T09:13:11;19.30;99.90
16066;DHT22;8137;48.952;8.970;2023-09-19T09:15:41;19.30;99.90
16066;DHT22;8137;48.952;8.970;2023-09-19T09:18:06;19.20;99.90
16066;DHT22;8137;48.952;8.970;2023-09-19T09:20:32;19.20;99.90
16066;DHT22;8137;48.952;8.970;2023-09-19T09:22:58;19.20;99.90
16066;DHT22;8137;48.952;8.970;2023-09-19T09:25:48;19.00;99.90
16066;DHT22;8137;48.952;8.970;2023-09-19T09:28:24;19.00;99.90
16066;DHT22;8137;48.952;8.970;2023-09-19T09:30:50;19.10;99.90
16066;DHT22;8137;48.952;8.970;2023-09-19T09:33:16;19.20;99.90
16066;DHT22;8137;48.952;8.970;2023-09-19T09:35:53;19.40;99.90
16066;DHT22;8137;48.952;8.970;2023-09-19T09:38:23;19.70;99.90
16066;DHT22;8137;48.952;8.970;2023-09-19T09:40:54;19.70;99.90
16066;DHT22;8137;48.952;8.970;2023-09-19T09:43:38;19.80;99.90
16066;DHT22;8137;48.952;8.970;2023-09-19T09:49:02;19.50;99.90
16066;DHT22;8137;48.952;8.970;2023-09-19T09:54:18;19.90;99.90
16066;DHT22;8137;48.952;8.970;2023-09-19T09:57:03;20.20;99.90
16066;DHT22;8137;48.952;8.970;2023-09-19T10:02:18;20.80;99.90
16066;DHT22;8137;48.952;8.970;2023-09-19T10:04:54;20.80;99.90
16066;DHT22;8137;48.952;8.970;2023-09-19T10:07:40;20.80;99.90
16066;DHT22;8137;48.952;8.970;2023-09-19T10:10:15;20.80;99.90
16066;DHT22;8137;48.952;8.970;2023-09-19T10:12:55;21.00;99.90
16066;DHT22;8137;48.952;8.970;2023-09-19T10:15:31;21.20;99.90
16066;DHT22;8137;48.952;8.970;2023-09-19T10:18:01;21.30;99.90
16066;DHT22;8137;48.952;8.970;2023-09-19T10:20:28;21.40;99.90
16066;DHT22;8137;48.952;8.970;2023-09-19T10:23:03;21.20;99.90
16066;DHT22;8137;48.952;8.970;2023-09-19T10:25:37;21.20;99.90
16066;DHT22;8137;48.952;8.970;2023-09-19T10:28:02;21.10;99.90
16066;DHT22;8137;48.952;8.970;2023-09-19T10:30:31;21.00;99.90
16066;DHT22;8137;48.952;8.970;2023-09-19T10:33:02;20.70;99.90
16066;DHT22;8137;48.952;8.970;2023-09-19T10:35:29;20.40;99.90
16066;DHT22;8137;48.952;8.970;2023-09-19T10:38:00;20.50;99.90
16066;DHT22;8137;48.952;8.970;2023-09-19T10:40:27;20.60;99.90
16066;DHT22;8137;48.952;8.970;2023-09-19T10:43:05;20.80;99.90
16066;DHT22;8137;48.952;8.970;2023-09-19T10:45:35;21.20;99.90
16066;DHT22;8137;48.952;8.970;2023-09-19T10:48:02;21.50;99.90
16066;DHT22;8137;48.952;8.970;2023-09-19T10:51:09;22.00;99.90
16066;DHT22;8137;48.952;8.970;2023-09-19T10:53:38;22.10;99.90
16066;DHT22;8137;48.952;8.970;2023-09-19T10:56:07;22.00;99.90
16066;DHT22;8137;48.952;8.970;2023-09-19T10:58:43;22.20;99.90
16066;DHT22;8137;48.952;8.970;2023-09-19T11:01:11;22.40;99.90
16066;DHT22;8137;48.952;8.970;2023-09-19T11:03:41;22.20;99.90
16066;DHT22;8137;48.952;8.970;2023-09-19T11:06:15;22.10;99.90
16066;DHT22;8137;48.952;8.970;2023-09-19T11:09:01;21.90;99.90
16066;DHT22;8137;48.952;8.970;2023-09-19T11:30:49;23.40;99.90
16066;DHT22;8137;48.952;8.970;2023-09-19T11:41:37;22.00;99.90
16066;DHT22;8137;48.952;8.970;2023-09-19T11:49:26;21.80;99.90
16066;DHT22;8137;48.952;8.970;2023-09-19T11:51:55;22.10;99.90
16066;DHT22;8137;48.952;8.970;2023-09-19T11:54:21;22.10;99.90
16066;DHT22;8137;48.952;8.970;2023-09-19T11:56:51;22.30;99.90
16066;DHT22;8137;48.952;8.970;2023-09-19T11:59:23;22.50;99.90
16066;DHT22;8137;48.952;8.970;2023-09-19T12:01:57;22.40;99.90
16066;DHT22;8137;48.952;8.970;2023-09-19T12:04:42;22.60;99.90
16066;DHT22;8137;48.952;8.970;2023-09-19T12:09:42;22.00;99.90
16066;DHT22;8137;48.952;8.970;2023-09-19T12:12:10;22.00;99.90
16066;DHT22;8137;48.952;8.970;2023-09-19T12:14:38;22.10;99.90
16066;DHT22;8137;48.952;8.970;2023-09-19T12:17:05;22.20;99.90
16066;DHT22;8137;48.952;8.970;2023-09-19T12:19:30;22.20;99.90
16066;DHT22;8137;48.952;8.970;2023-09-19T12:24:24;22.10;99.90
16066;DHT22;8137;48.952;8.970;2023-09-19T12:26:59;22.10;99.90
16066;DHT22;8137;48.952;8.970;2023-09-19T12:29:32;22.20;99.90
16066;DHT22;8137;48.952;8.970;2023-09-19T12:31:59;22.30;99.90
16066;DHT22;8137;48.952;8.970;2023-09-19T12:34:32;22.20;99.90
16066;DHT22;8137;48.952;8.970;2023-09-19T12:37:14;22.00;99.90
16066;DHT22;8137;48.952;8.970;2023-09-19T12:39:51;21.90;99.90
16066;DHT22;8137;48.952;8.970;2023-09-19T12:42:25;22.10;99.90
16066;DHT22;8137;48.952;8.970;2023-09-19T12:44:55;22.20;99.90
16066;DHT22;8137;48.952;8.970;2023-09-19T12:47:24;22.30;99.90
16066;DHT22;8137;48.952;8.970;2023-09-19T12:52:46;21.90;99.90
16066;DHT22;8137;48.952;8.970;2023-09-19T12:55:40;22.10;99.90
16066;DHT22;8137;48.952;8.970;2023-09-19T12:58:14;22.50;99.90
16066;DHT22;8137;48.952;8.970;2023-09-19T13:00:45;22.60;99.90
16066;DHT22;8137;48.952;8.970;2023-09-19T13:06:01;22.90;99.90
16066;DHT22;8137;48.952;8.970;2023-09-19T13:08:32;23.10;98.90
16066;DHT22;8137;48.952;8.970;2023-09-19T13:13:39;23.10;94.40
16066;DHT22;8137;48.952;8.970;2023-09-19T13:16:05;23.20;94.00
16066;DHT22;8137;48.952;8.970;2023-09-19T13:18:50;23.10;93.40
16066;DHT22;8137;48.952;8.970;2023-09-19T13:21:29;23.10;91.30
16066;DHT22;8137;48.952;8.970;2023-09-19T13:23:56;23.00;88.20
16066;DHT22;8137;48.952;8.970;2023-09-19T13:26:41;23.00;84.80
16066;DHT22;8137;48.952;8.970;2023-09-19T13:29:06;23.10;83.20
16066;DHT22;8137;48.952;8.970;2023-09-19T13:31:32;23.20;84.80
16066;DHT22;8137;48.952;8.970;2023-09-19T13:33:58;23.30;78.80
16066;DHT22;8137;48.952;8.970;2023-09-19T13:36:23;23.30;69.10
16066;DHT22;8137;48.952;8.970;2023-09-19T13:38:49;23.10;64.70
16066;DHT22;8137;48.952;8.970;2023-09-19T13:41:15;23.00;70.00
16066;DHT22;8137;48.952;8.970;2023-09-19T13:43:41;23.10;66.60
16066;DHT22;8137;48.952;8.970;2023-09-19T13:46:06;23.00;63.40
16066;DHT22;8137;48.952;8.970;2023-09-19T13:48:40;23.10;65.10
16066;DHT22;8137;48.952;8.970;2023-09-19T13:51:06;23.10;61.60
16066;DHT22;8137;48.952;8.970;2023-09-19T13:53:31;23.00;61.40
16066;DHT22;8137;48.952;8.970;2023-09-19T13:55:57;23.10;63.60
16066;DHT22;8137;48.952;8.970;2023-09-19T13:58:23;23.10;63.70
16066;DHT22;8137;48.952;8.970;2023-09-19T14:00:49;23.20;64.00
16066;DHT22;8137;48.952;8.970;2023-09-19T14:03:16;23.20;57.70
16066;DHT22;8137;48.952;8.970;2023-09-19T14:05:41;23.10;55.60
16066;DHT22;8137;48.952;8.970;2023-09-19T14:08:08;23.00;56.90
16066;DHT22;8137;48.952;8.970;2023-09-19T14:10:33;22.90;54.30
16066;DHT22;8137;48.952;8.970;2023-09-19T14:13:00;22.90;51.90
16066;DHT22;8137;48.952;8.970;2023-09-19T14:15:27;23.00;54.40
16066;DHT22;8137;48.952;8.970;2023-09-19T14:17:56;23.00;54.60
16066;DHT22;8137;48.952;8.970;2023-09-19T14:20:22;23.10;54.00
16066;DHT22;8137;48.952;8.970;2023-09-19T14:22:48;23.10;49.80
16066;DHT22;8137;48.952;8.970;2023-09-19T14:25:14;23.10;50.80
16066;DHT22;8137;48.952;8.970;2023-09-19T14:27:39;23.10;48.00
16066;DHT22;8137;48.952;8.970;2023-09-19T14:30:07;23.20;50.00
16066;DHT22;8137;48.952;8.970;2023-09-19T14:32:32;23.30;43.90
16066;DHT22;8137;48.952;8.970;2023-09-19T14:34:58;23.40;41.40
16066;DHT22;8137;48.952;8.970;2023-09-19T14:37:24;23.40;44.60
16066;DHT22;8137;48.952;8.970;2023-09-19T14:39:49;23.70;44.00
16066;DHT22;8137;48.952;8.970;2023-09-19T14:42:15;23.80;45.60
16066;DHT22;8137;48.952;8.970;2023-09-19T14:44:43;24.00;41.50
16066;DHT22;8137;48.952;8.970;2023-09-19T14:47:09;24.00;38.40
16066;DHT22;8137;48.952;8.970;2023-09-19T14:49:39;24.00;38.10
16066;DHT22;8137;48.952;8.970;2023-09-19T14:52:10;23.80;35.40
16066;DHT22;8137;48.952;8.970;2023-09-19T14:54:36;23.60;35.10
16066;DHT22;8137;48.952;8.970;2023-09-19T14:57:03;23.30;39.70
16066;DHT22;8137;48.952;8.970;2023-09-19T14:59:33;23.40;41.20
16066;DHT22;8137;48.952;8.970;2023-09-19T15:02:03;23.60;40.90
16066;DHT22;8137;48.952;8.970;2023-09-19T15:04:29;23.60;40.00
16066;DHT22;8137;48.952;8.970;2023-09-19T15:06:55;23.60;41.50
16066;DHT22;8137;48.952;8.970;2023-09-19T15:09:24;23.40;37.70
16066;DHT22;8137;48.952;8.970;2023-09-19T15:11:53;23.40;37.10
16066;DHT22;8137;48.952;8.970;2023-09-19T15:14:19;23.40;36.80
16066;DHT22;8137;48.952;8.970;2023-09-19T15:16:45;23.30;39.50
16066;DHT22;8137;48.952;8.970;2023-09-19T15:19:10;23.30;40.00
16066;DHT22;8137;48.952;8.970;2023-09-19T15:21:36;23.30;38.30
16066;DHT22;8137;48.952;8.970;2023-09-19T15:24:03;23.20;40.70
16066;DHT22;8137;48.952;8.970;2023-09-19T15:26:28;23.20;42.20
16066;DHT22;8137;48.952;8.970;2023-09-19T15:28:55;23.10;42.90
16066;DHT22;8137;48.952;8.970;2023-09-19T15:31:21;23.00;41.50
16066;DHT22;8137;48.952;8.970;2023-09-19T15:33:46;22.90;42.90
16066;DHT22;8137;48.952;8.970;2023-09-19T15:36:14;22.80;43.10
16066;DHT22;8137;48.952;8.970;2023-09-19T15:39:00;22.60;44.10
16066;DHT22;8137;48.952;8.970;2023-09-19T15:41:27;22.50;45.90
16066;DHT22;8137;48.952;8.970;2023-09-19T15:43:54;22.40;46.10
16066;DHT22;8137;48.952;8.970;2023-09-19T15:46:20;22.30;49.30
16066;DHT22;8137;48.952;8.970;2023-09-19T15:48:46;22.20;54.20
16066;DHT22;8137;48.952;8.970;2023-09-19T15:51:12;22.20;55.30
16066;DHT22;8137;48.952;8.970;2023-09-19T15:53:50;22.10;55.00
16066;DHT22;8137;48.952;8.970;2023-09-19T15:56:17;22.10;55.40
16066;DHT22;8137;48.952;8.970;2023-09-19T15:58:53;22.10;55.20
16066;DHT22;8137;48.952;8.970;2023-09-19T16:01:19;22.10;55.80
16066;DHT22;8137;48.952;8.970;2023-09-19T16:03:51;22.00;58.70
16066;DHT22;8137;48.952;8.970;2023-09-19T16:06:25;22.00;61.00
16066;DHT22;8137;48.952;8.970;2023-09-19T16:08:52;21.90;57.40
16066;DHT22;8137;48.952;8.970;2023-09-19T16:11:19;21.90;58.90
16066;DHT22;8137;48.952;8.970;2023-09-19T16:13:47;22.00;62.40
16066;DHT22;8137;48.952;8.970;2023-09-19T16:16:14;22.00;63.60
16066;DHT22;8137;48.952;8.970;2023-09-19T16:18:55;21.90;64.50
16066;DHT22;8137;48.952;8.970;2023-09-19T16:21:23;21.90;62.80
16066;DHT22;8137;48.952;8.970;2023-09-19T16:23:50;21.90;67.50
16066;DHT22;8137;48.952;8.970;2023-09-19T16:26:17;21.80;65.70
16066;DHT22;8137;48.952;8.970;2023-09-19T16:28:47;21.90;68.90
16066;DHT22;8137;48.952;8.970;2023-09-19T16:31:13;21.80;72.20
16066;DHT22;8137;48.952;8.970;2023-09-19T16:33:46;21.80;76.60
16066;DHT22;8137;48.952;8.970;2023-09-19T16:36:16;21.70;75.10
16066;DHT22;8137;48.952;8.970;2023-09-19T16:38:45;21.60;76.90
16066;DHT22;8137;48.952;8.970;2023-09-19T16:41:11;21.60;79.90
16066;DHT22;8137;48.952;8.970;2023-09-19T16:43:38;21.50;82.90
16066;DHT22;8137;48.952;8.970;2023-09-19T16:46:08;21.30;86.20
16066;DHT22;8137;48.952;8.970;2023-09-19T16:48:37;21.30;89.00
16066;DHT22;8137;48.952;8.970;2023-09-19T16:51:04;21.30;90.50
16066;DHT22;8137;48.952;8.970;2023-09-19T16:53:31;21.40;91.40